Terminal Aerodrome Forecast
Issued by NWS Birmingham, AL

Home | Current Version | Previous Version | Text Only | Print | Product List | Glossary On
Versions: 1 2 3 4 5 6 7 8 9 10 11 12 13 14 15 16 17 18 19 20 21
000
FTUS44 KBMX 252348 CCA
TAFBHM
TAF COR
KBHM 252348Z 2600/2624 15008KT P6SM -RA SCT005 SCT035 BKN110
     FM260800 14008KT P6SM BKN004 BKN007 OVC015
      TEMPO 2610/2614 BKN015
     FM261400 16008KT P6SM BKN015 BKN050
     FM261900 18008KT P6SM VCTS BKN030CB=

USA.gov is the U.S. government's official web portal to all federal, state and local government web resources and services.